createdAt,value
2018-06-24T00:00:29.056Z,2.33
2018-06-24T00:02:34.074Z,2.50
2018-06-24T00:04:39.037Z,2.70
2018-06-24T00:06:44.084Z,2.57
2018-06-24T00:08:49.375Z,2.47
2018-06-24T00:10:54.347Z,2.70
2018-06-24T00:12:59.406Z,2.77
2018-06-24T00:15:04.543Z,4.40
2018-06-24T00:17:10.455Z,2.97
2018-06-24T00:19:15.521Z,2.80
2018-06-24T00:21:20.537Z,3.07
2018-06-24T00:23:25.545Z,2.90
2018-06-24T00:25:30.498Z,2.40
2018-06-24T00:27:35.523Z,2.70
2018-06-24T00:29:40.615Z,3.27
2018-06-24T00:31:46.861Z,3.20
2018-06-24T00:33:51.915Z,2.77
2018-06-24T00:35:56.860Z,2.60
2018-06-24T00:38:01.818Z,3.13
2018-06-24T00:40:06.866Z,2.67
2018-06-24T00:42:12.056Z,3.30
2018-06-24T00:44:17.409Z,3.27
2018-06-24T00:46:22.453Z,2.83
2018-06-24T00:48:27.748Z,3.20
2018-06-24T00:50:33.516Z,3.97
2018-06-24T00:52:39.379Z,2.67
2018-06-24T00:54:44.429Z,3.40
2018-06-24T00:56:49.466Z,2.53
2018-06-24T00:58:54.475Z,2.67
2018-06-24T01:00:59.898Z,2.73
2018-06-24T01:03:05.875Z,2.80
2018-06-24T01:05:11.902Z,2.90
2018-06-24T01:07:16.933Z,2.70
2018-06-24T01:09:21.938Z,2.60
2018-06-24T01:11:26.912Z,2.60
2018-06-24T01:13:32.019Z,2.77
2018-06-24T01:15:37.118Z,2.83
2018-06-24T01:17:42.047Z,3.10
2018-06-24T01:19:47.016Z,3.77
2018-06-24T01:21:52.243Z,2.80
2018-06-24T01:23:57.215Z,2.67
2018-06-24T01:26:02.212Z,3.20
2018-06-24T01:28:07.101Z,3.40
2018-06-24T01:30:12.175Z,2.97
2018-06-24T01:32:17.479Z,2.80
2018-06-24T01:34:22.427Z,3.50
2018-06-24T01:36:27.459Z,3.27
2018-06-24T01:38:32.327Z,3.60
2018-06-24T01:40:37.382Z,3.73
2018-06-24T01:42:42.375Z,3.00
2018-06-24T01:44:47.574Z,2.87
2018-06-24T01:46:52.895Z,3.30
2018-06-24T01:48:58.581Z,2.80
2018-06-24T01:51:03.774Z,2.83
2018-06-24T01:53:09.058Z,3.87
2018-06-24T01:55:14.713Z,2.90
2018-06-24T01:57:20.176Z,3.30
2018-06-24T01:59:25.399Z,2.47
2018-06-24T02:01:30.659Z,4.70
2018-06-24T02:03:35.941Z,2.80
2018-06-24T02:05:41.202Z,2.57
2018-06-24T02:07:46.734Z,2.90
2018-06-24T02:09:51.170Z,3.40
2018-06-24T02:11:55.991Z,3.20
2018-06-24T02:14:01.356Z,2.57
2018-06-24T02:16:06.936Z,4.20
2018-06-24T02:18:11.883Z,4.20
2018-06-24T02:20:16.956Z,3.50
2018-06-24T02:22:21.907Z,2.80
2018-06-24T02:24:26.834Z,3.40
2018-06-24T02:26:31.775Z,2.97
2018-06-24T02:28:36.999Z,3.30
2018-06-24T02:30:41.990Z,2.97
2018-06-24T02:32:46.891Z,3.17
2018-06-24T02:34:52.789Z,3.60
2018-06-24T02:36:58.130Z,3.70
2018-06-24T02:39:04.134Z,4.07
2018-06-24T02:41:09.743Z,4.07
2018-06-24T02:43:14.690Z,3.53
2018-06-24T02:45:19.758Z,3.47
2018-06-24T02:47:24.695Z,3.90
2018-06-24T02:49:29.766Z,3.40
2018-06-24T02:51:35.192Z,4.13
2018-06-24T02:53:40.433Z,4.07
2018-06-24T02:55:45.310Z,3.20
2018-06-24T02:57:50.787Z,3.97
2018-06-24T02:59:55.766Z,3.90
2018-06-24T03:02:00.761Z,3.40
2018-06-24T03:04:05.811Z,4.17
2018-06-24T03:06:10.804Z,4.00
2018-06-24T03:08:15.862Z,4.77
2018-06-24T03:10:20.853Z,4.07
2018-06-24T03:12:26.218Z,3.90
2018-06-24T03:14:31.184Z,4.50
2018-06-24T03:16:35.830Z,3.50
2018-06-24T03:18:41.646Z,4.60
2018-06-24T03:20:46.653Z,4.07
2018-06-24T03:22:51.676Z,4.53
2018-06-24T03:24:56.727Z,4.70
2018-06-24T03:27:01.743Z,4.13
2018-06-24T03:29:06.703Z,4.90
2018-06-24T03:31:11.811Z,4.60
2018-06-24T03:33:16.926Z,4.50
2018-06-24T03:35:21.863Z,4.67
2018-06-24T03:37:26.767Z,4.00
2018-06-24T03:39:32.135Z,4.73
2018-06-24T03:41:37.047Z,4.47
2018-06-24T03:43:42.015Z,4.63
2018-06-24T03:45:46.994Z,4.63
2018-06-24T03:47:52.918Z,5.60
2018-06-24T03:49:57.903Z,4.50
2018-06-24T03:52:02.806Z,4.70
2018-06-24T03:54:07.752Z,4.90
2018-06-24T03:56:12.772Z,4.77
2018-06-24T03:58:17.846Z,4.60
2018-06-24T04:00:23.972Z,4.77
2018-06-24T04:02:28.943Z,4.33
2018-06-24T04:04:33.868Z,4.30
2018-06-24T04:06:38.806Z,4.47
2018-06-24T04:08:43.759Z,4.73
2018-06-24T04:10:49.614Z,4.60
2018-06-24T04:12:54.558Z,4.13
2018-06-24T04:15:00.547Z,4.77
2018-06-24T04:17:05.475Z,4.20
2018-06-24T04:19:10.590Z,5.10
2018-06-24T04:21:16.138Z,4.83
2018-06-24T04:23:21.538Z,5.30
2018-06-24T04:25:26.630Z,4.70
2018-06-24T04:27:32.056Z,4.80
2018-06-24T04:29:37.522Z,5.20
2018-06-24T04:31:42.499Z,4.90
2018-06-24T04:33:47.438Z,5.17
2018-06-24T04:35:52.562Z,4.87
2018-06-24T04:37:57.501Z,4.63
2018-06-24T04:40:02.745Z,5.07
2018-06-24T04:42:07.895Z,5.33
2018-06-24T04:44:12.890Z,4.47
2018-06-24T04:46:19.018Z,5.10
2018-06-24T04:48:23.955Z,5.47
2018-06-24T04:50:29.262Z,4.80
2018-06-24T04:52:34.671Z,5.47
2018-06-24T04:54:40.229Z,5.20
2018-06-24T04:56:45.239Z,4.77
2018-06-24T04:58:50.218Z,4.13
2018-06-24T05:00:55.454Z,5.53
2018-06-24T05:03:00.432Z,4.67
2018-06-24T05:05:06.868Z,5.10
2018-06-24T05:07:11.885Z,5.17
2018-06-24T05:09:17.354Z,4.50
2018-06-24T05:11:22.358Z,4.77
2018-06-24T05:13:27.337Z,3.67
2018-06-24T05:15:31.833Z,5.90
2018-06-24T05:17:36.710Z,5.40
2018-06-24T05:19:41.682Z,4.83
2018-06-24T05:21:46.690Z,4.60
2018-06-24T05:23:51.699Z,4.10
2018-06-24T05:25:56.674Z,4.87
2018-06-24T05:28:01.664Z,5.10
2018-06-24T05:30:06.639Z,4.27
2018-06-24T05:32:11.645Z,5.63
2018-06-24T05:34:16.589Z,4.57
2018-06-24T05:36:21.519Z,4.30
2018-06-24T05:38:26.479Z,4.47
2018-06-24T05:40:30.934Z,4.00
2018-06-24T05:42:35.894Z,4.50
2018-06-24T05:44:40.878Z,4.30
2018-06-24T05:46:45.912Z,4.40
2018-06-24T05:48:50.954Z,4.67
2018-06-24T05:50:55.907Z,5.20
2018-06-24T05:53:00.944Z,5.17
2018-06-24T05:55:06.415Z,4.03
2018-06-24T05:57:11.263Z,4.70
2018-06-24T05:59:16.234Z,5.37
2018-06-24T06:01:21.666Z,4.57
2018-06-24T06:03:27.334Z,4.10
2018-06-24T06:05:32.331Z,4.40
2018-06-24T06:07:37.375Z,3.70
2018-06-24T06:09:42.426Z,3.73
2018-06-24T06:11:47.486Z,4.57
2018-06-24T06:13:52.378Z,4.00
2018-06-24T06:15:57.369Z,3.87
2018-06-24T06:18:02.380Z,4.50
2018-06-24T06:20:08.770Z,4.27
2018-06-24T06:22:13.771Z,3.63
2018-06-24T06:24:18.714Z,3.17
2018-06-24T06:26:23.676Z,4.40
2018-06-24T06:28:28.738Z,4.43
2018-06-24T06:30:33.739Z,3.23
2018-06-24T06:32:38.659Z,3.97
2018-06-24T06:34:44.085Z,4.60
2018-06-24T06:36:49.517Z,2.57
2018-06-24T06:38:54.500Z,2.60
2018-06-24T06:40:58.963Z,2.80
2018-06-24T06:43:04.098Z,3.33
2018-06-24T06:45:09.156Z,2.57
2018-06-24T06:47:14.428Z,2.70
2018-06-24T06:49:19.398Z,2.20
2018-06-24T06:51:24.315Z,2.10
2018-06-24T06:53:29.303Z,2.87
2018-06-24T06:55:34.195Z,3.00
2018-06-24T06:57:39.657Z,2.40
2018-06-24T06:59:44.609Z,2.43
2018-06-24T07:01:50.157Z,2.47
2018-06-24T07:03:55.211Z,2.67
2018-06-24T07:06:00.817Z,2.50
2018-06-24T07:08:06.161Z,2.80
2018-06-24T07:10:12.009Z,2.50
2018-06-24T07:12:16.928Z,2.63
2018-06-24T07:14:22.000Z,2.80
2018-06-24T07:16:27.206Z,3.50
2018-06-24T07:18:32.122Z,3.40
2018-06-24T07:20:37.186Z,3.07
2018-06-24T07:22:42.127Z,3.57
2018-06-24T07:24:47.620Z,3.47
2018-06-24T07:26:52.629Z,3.90
2018-06-24T07:28:57.551Z,4.03
2018-06-24T07:31:02.571Z,3.33
2018-06-24T07:33:08.521Z,4.47
2018-06-24T07:35:13.540Z,4.47
2018-06-24T07:37:18.500Z,4.40
2018-06-24T07:39:23.475Z,5.10
2018-06-24T07:41:28.418Z,5.07
2018-06-24T07:43:33.418Z,5.17
2018-06-24T07:45:37.948Z,4.37
2018-06-24T07:47:42.804Z,4.77
2018-06-24T07:49:49.371Z,5.57
2018-06-24T07:51:54.415Z,4.10
2018-06-24T07:53:59.371Z,4.07
2018-06-24T07:56:04.538Z,3.93
2018-06-24T07:58:09.541Z,3.53
2018-06-24T08:00:14.483Z,3.10
2018-06-24T08:02:19.480Z,3.00
2018-06-24T08:04:24.447Z,3.17
2018-06-24T08:06:29.445Z,3.03
2018-06-24T08:08:34.481Z,2.57
2018-06-24T08:10:39.460Z,2.67
2018-06-24T08:12:44.428Z,2.90
2018-06-24T08:14:49.966Z,3.20
2018-06-24T08:16:54.922Z,2.73
2018-06-24T08:19:01.702Z,2.70
2018-06-24T08:21:07.599Z,3.10
2018-06-24T08:23:12.581Z,3.20
2018-06-24T08:25:17.552Z,3.13
2018-06-24T08:27:22.559Z,3.20
2018-06-24T08:29:27.538Z,2.83
2018-06-24T08:31:32.503Z,3.07
2018-06-24T08:33:37.471Z,3.13
2018-06-24T08:35:42.407Z,2.93
2018-06-24T08:37:47.367Z,3.47
2018-06-24T08:39:52.316Z,3.10
2018-06-24T08:41:57.330Z,3.07
2018-06-24T08:44:02.353Z,3.17
2018-06-24T08:46:07.391Z,2.97
2018-06-24T08:48:12.358Z,2.87
2018-06-24T08:50:17.352Z,2.80
2018-06-24T08:52:21.850Z,2.80
2018-06-24T08:54:29.017Z,2.90
2018-06-24T08:56:35.146Z,2.80
2018-06-24T08:58:40.378Z,2.47
2018-06-24T09:00:45.322Z,3.47
2018-06-24T09:02:50.925Z,4.43
2018-06-24T09:04:56.062Z,4.30
2018-06-24T09:07:01.134Z,4.23
2018-06-24T09:09:08.931Z,4.40
2018-06-24T09:11:36.190Z,4.57
2018-06-24T09:13:45.885Z,3.97
2018-06-24T09:15:54.068Z,3.67
2018-06-24T09:18:01.908Z,4.17
2018-06-24T09:20:11.471Z,3.83
2018-06-24T09:22:18.316Z,2.90
2018-06-24T09:24:25.922Z,3.80
2018-06-24T09:26:32.848Z,4.57
2018-06-24T09:28:37.810Z,4.33
2018-06-24T09:30:42.909Z,3.90
2018-06-24T09:32:51.189Z,3.00
2018-06-24T09:34:57.562Z,5.00
2018-06-24T09:37:03.717Z,4.57
2018-06-24T09:39:12.141Z,3.53
2018-06-24T09:41:18.705Z,3.87
2018-06-24T09:43:25.898Z,4.27
2018-06-24T09:45:32.925Z,2.70
2018-06-24T09:47:38.195Z,3.70
2018-06-24T09:49:43.251Z,3.60
2018-06-24T09:51:56.632Z,3.60
2018-06-24T09:54:01.745Z,3.67
2018-06-24T09:56:08.170Z,4.53
2018-06-24T09:58:14.719Z,4.37
2018-06-24T10:00:21.962Z,4.00
2018-06-24T10:02:28.835Z,4.27
2018-06-24T10:04:35.902Z,4.07
2018-06-24T10:06:43.553Z,3.60
2018-06-24T10:08:50.564Z,2.70
2018-06-24T10:10:55.504Z,4.50
2018-06-24T10:13:00.416Z,3.43
2018-06-24T10:15:05.467Z,4.00
2018-06-24T10:17:10.580Z,4.10
2018-06-24T10:19:15.514Z,3.50
2018-06-24T10:21:20.531Z,3.63
2018-06-24T10:23:40.880Z,4.57
2018-06-24T10:25:49.373Z,3.30
2018-06-24T10:27:56.294Z,3.60
2018-06-24T10:30:01.936Z,3.30
2018-06-24T10:32:07.626Z,4.30
2018-06-24T10:34:12.679Z,4.57
2018-06-24T10:36:18.993Z,3.80
2018-06-24T10:38:24.936Z,3.60
2018-06-24T10:40:34.164Z,2.93
2018-06-24T10:42:40.288Z,4.80
2018-06-24T10:44:47.149Z,3.40
2018-06-24T10:46:54.821Z,4.23
2018-06-24T10:49:02.894Z,3.60
2018-06-24T10:51:09.260Z,4.03
2018-06-24T10:53:16.183Z,3.97
2018-06-24T10:55:22.738Z,4.23
2018-06-24T10:57:28.775Z,4.30
2018-06-24T10:59:36.490Z,4.67
2018-06-24T11:01:45.202Z,4.20
2018-06-24T11:03:53.390Z,4.30
2018-06-24T11:06:00.981Z,4.20
2018-06-24T11:08:08.113Z,3.47
2018-06-24T11:10:15.069Z,4.57
2018-06-24T11:12:20.820Z,4.33
2018-06-24T11:14:26.845Z,3.67
2018-06-24T11:16:32.107Z,2.80
2018-06-24T11:18:39.246Z,2.77
2018-06-24T11:20:45.961Z,3.43
2018-06-24T11:22:54.430Z,3.30
2018-06-24T11:25:01.564Z,2.90
2018-06-24T11:27:07.093Z,3.63
2018-06-24T11:29:13.454Z,2.83
2018-06-24T11:31:18.520Z,2.80
2018-06-24T11:33:37.539Z,2.83
2018-06-24T11:35:46.842Z,2.77
2018-06-24T11:37:51.955Z,2.50
2018-06-24T11:39:57.145Z,2.93
2018-06-24T11:42:04.331Z,2.80
2018-06-24T11:44:10.888Z,2.90
2018-06-24T11:46:15.891Z,2.00
2018-06-24T11:48:20.905Z,2.17
2018-06-24T11:50:25.929Z,3.00
2018-06-24T11:52:30.958Z,2.70
2018-06-24T11:54:35.926Z,3.50
2018-06-24T11:56:41.039Z,2.60
2018-06-24T11:58:46.087Z,3.80
2018-06-24T12:00:51.096Z,4.00
2018-06-24T12:02:56.129Z,3.77
2018-06-24T12:05:01.522Z,3.07
2018-06-24T12:07:06.865Z,2.80
2018-06-24T12:09:13.375Z,3.00
2018-06-24T12:11:19.018Z,2.77
2018-06-24T12:13:23.934Z,3.00
2018-06-24T12:15:28.913Z,2.70
2018-06-24T12:17:33.886Z,2.37
2018-06-24T12:19:39.041Z,2.73
2018-06-24T12:21:44.063Z,2.60
2018-06-24T12:23:48.979Z,3.00
2018-06-24T12:25:53.959Z,3.23
2018-06-24T12:27:58.856Z,3.10
2018-06-24T12:30:04.103Z,2.63
2018-06-24T12:32:09.051Z,2.53
2018-06-24T12:34:14.054Z,2.40
2018-06-24T12:36:19.000Z,2.50
2018-06-24T12:38:23.982Z,2.43
2018-06-24T12:40:32.311Z,3.00
2018-06-24T12:42:37.299Z,2.33
2018-06-24T12:44:42.278Z,2.47
2018-06-24T12:46:47.239Z,2.33
2018-06-24T12:48:52.165Z,2.00
2018-06-24T12:50:57.099Z,2.53
2018-06-24T12:53:02.063Z,2.67
2018-06-24T12:55:07.359Z,2.70
2018-06-24T12:57:12.315Z,2.30
2018-06-24T12:59:17.661Z,2.00
2018-06-24T13:01:22.342Z,2.40
2018-06-24T13:03:27.269Z,2.43
2018-06-24T13:05:32.247Z,1.97
2018-06-24T13:07:37.705Z,3.47
2018-06-24T13:09:42.685Z,2.40
2018-06-24T13:11:47.631Z,3.20
2018-06-24T13:13:52.728Z,3.17
2018-06-24T13:15:57.867Z,2.90
2018-06-24T13:18:02.939Z,3.80
2018-06-24T13:20:07.975Z,2.73
2018-06-24T13:22:12.892Z,2.93
2018-06-24T13:24:17.999Z,3.13
2018-06-24T13:26:23.130Z,3.10
2018-06-24T13:28:28.069Z,4.60
2018-06-24T13:30:33.259Z,5.13
2018-06-24T13:32:38.193Z,3.27
2018-06-24T13:34:43.208Z,4.63
2018-06-24T13:36:48.205Z,3.10
2018-06-24T13:38:53.238Z,3.43
2018-06-24T13:40:58.356Z,3.57
2018-06-24T13:43:03.283Z,3.37
2018-06-24T13:45:09.248Z,4.20
2018-06-24T13:47:14.202Z,4.20
2018-06-24T13:49:19.164Z,3.73
2018-06-24T13:51:24.184Z,4.67
2018-06-24T13:53:29.210Z,4.80
2018-06-24T13:55:34.251Z,4.50
2018-06-24T13:57:39.167Z,4.20
2018-06-24T13:59:44.094Z,3.30
2018-06-24T14:01:49.107Z,3.33
2018-06-24T14:03:54.065Z,3.57
2018-06-24T14:05:59.025Z,4.30
2018-06-24T14:08:04.117Z,3.93
2018-06-24T14:10:17.910Z,4.07
2018-06-24T14:12:22.907Z,3.40
2018-06-24T14:14:27.820Z,4.13
2018-06-24T14:16:32.924Z,3.37
2018-06-24T14:18:37.862Z,4.30
2018-06-24T14:20:42.842Z,4.00
2018-06-24T14:22:47.814Z,3.60
2018-06-24T14:24:52.815Z,3.23
2018-06-24T14:26:57.843Z,3.50
2018-06-24T14:29:02.925Z,4.43
2018-06-24T14:31:07.880Z,4.60
2018-06-24T14:33:12.809Z,4.90
2018-06-24T14:35:17.801Z,4.30
2018-06-24T14:37:22.814Z,4.80
2018-06-24T14:39:27.877Z,3.90
2018-06-24T14:41:32.817Z,3.30
2018-06-24T14:43:37.823Z,4.97
2018-06-24T14:45:42.833Z,4.17
2018-06-24T14:47:47.823Z,3.97
2018-06-24T14:49:52.841Z,3.70
2018-06-24T14:51:57.803Z,3.97
2018-06-24T14:54:02.834Z,4.00
2018-06-24T14:56:07.842Z,3.90
2018-06-24T14:58:12.796Z,4.73
2018-06-24T15:00:17.857Z,5.03
2018-06-24T15:02:22.918Z,4.83
2018-06-24T15:04:27.815Z,4.10
2018-06-24T15:06:32.772Z,3.93
2018-06-24T15:08:37.728Z,3.87
2018-06-24T15:10:42.766Z,3.43
2018-06-24T15:12:47.735Z,4.13
2018-06-24T15:14:52.707Z,4.30
2018-06-24T15:16:57.674Z,4.00
2018-06-24T15:19:02.646Z,4.50
2018-06-24T15:21:08.664Z,3.90
2018-06-24T15:23:13.754Z,3.70
2018-06-24T15:25:18.728Z,3.87
2018-06-24T15:27:23.754Z,5.17
2018-06-24T15:29:28.276Z,4.40
2018-06-24T15:31:33.184Z,4.73
2018-06-24T15:33:38.203Z,5.60
2018-06-24T15:35:43.124Z,5.30
2018-06-24T15:37:48.207Z,4.60
2018-06-24T15:39:53.176Z,4.60
2018-06-24T15:41:58.123Z,4.50
2018-06-24T15:44:03.164Z,6.00
2018-06-24T15:46:08.112Z,4.73
2018-06-24T15:48:13.119Z,4.60
2018-06-24T15:50:18.047Z,4.70
2018-06-24T15:52:23.014Z,4.10
2018-06-24T15:54:28.087Z,3.83
2018-06-24T15:56:33.047Z,4.30
2018-06-24T15:58:37.973Z,4.70
2018-06-24T16:00:43.035Z,4.97
2018-06-24T16:02:48.022Z,3.90
2018-06-24T16:04:53.343Z,4.70
2018-06-24T16:06:58.386Z,4.50
2018-06-24T16:09:03.640Z,4.40
2018-06-24T16:11:08.645Z,4.77
2018-06-24T16:13:13.561Z,3.83
2018-06-24T16:15:18.563Z,3.47
2018-06-24T16:17:23.541Z,3.87
2018-06-24T16:19:28.482Z,3.87
2018-06-24T16:21:33.611Z,3.57
2018-06-24T16:23:38.626Z,3.53
2018-06-24T16:25:43.694Z,4.00
2018-06-24T16:27:48.687Z,4.00
2018-06-24T16:29:54.090Z,3.80
2018-06-24T16:31:59.191Z,3.53
2018-06-24T16:34:04.228Z,3.63
2018-06-24T16:36:08.734Z,3.00
2018-06-24T16:38:13.570Z,3.60
2018-06-24T16:40:18.788Z,2.90
2018-06-24T16:42:23.798Z,3.30
2018-06-24T16:44:28.765Z,3.30
2018-06-24T16:46:33.803Z,3.40
2018-06-24T16:48:38.969Z,3.80
2018-06-24T16:50:44.576Z,3.20
2018-06-24T16:52:49.662Z,3.50
2018-06-24T16:54:54.586Z,3.63
2018-06-24T16:56:59.601Z,3.33
2018-06-24T16:59:04.531Z,3.60
2018-06-24T17:01:09.502Z,3.70
2018-06-24T17:03:14.461Z,3.40
2018-06-24T17:05:19.407Z,3.17
2018-06-24T17:07:24.378Z,3.70
2018-06-24T17:09:29.292Z,3.30
2018-06-24T17:11:34.228Z,3.63
2018-06-24T17:13:39.453Z,3.47
2018-06-24T17:15:44.700Z,4.53
2018-06-24T17:17:49.652Z,3.20
2018-06-24T17:19:54.740Z,3.60
2018-06-24T17:21:59.787Z,3.40
2018-06-24T17:24:04.819Z,3.40
2018-06-24T17:26:09.839Z,3.67
2018-06-24T17:28:14.820Z,3.50
2018-06-24T17:30:19.894Z,3.37
2018-06-24T17:32:24.835Z,2.90
2018-06-24T17:34:29.818Z,3.47
2018-06-24T17:36:34.831Z,3.43
2018-06-24T17:38:39.828Z,3.30
2018-06-24T17:40:44.837Z,3.70
2018-06-24T17:42:49.787Z,3.47
2018-06-24T17:44:54.774Z,4.10
2018-06-24T17:46:59.764Z,4.30
2018-06-24T17:49:04.816Z,3.77
2018-06-24T17:51:13.314Z,3.73
2018-06-24T17:53:18.290Z,4.30
2018-06-24T17:55:23.247Z,4.30
2018-06-24T17:57:28.247Z,3.90
2018-06-24T17:59:33.206Z,4.07
2018-06-24T18:01:38.221Z,4.20
2018-06-24T18:03:43.171Z,4.83
2018-06-24T18:05:48.266Z,4.03
2018-06-24T18:07:53.195Z,3.73
2018-06-24T18:09:58.124Z,3.20
2018-06-24T18:12:03.700Z,3.37
2018-06-24T18:14:08.930Z,3.43
2018-06-24T18:16:14.351Z,3.43
2018-06-24T18:18:19.699Z,3.40
2018-06-24T18:20:24.725Z,3.23
2018-06-24T18:22:29.846Z,3.50
2018-06-24T18:24:35.311Z,3.77
2018-06-24T18:26:40.295Z,3.67
2018-06-24T18:28:45.347Z,3.47
2018-06-24T18:30:50.556Z,3.23
2018-06-24T18:32:55.483Z,3.40
2018-06-24T18:35:00.461Z,3.33
2018-06-24T18:37:05.468Z,2.97
2018-06-24T18:39:10.771Z,3.23
2018-06-24T18:41:15.711Z,3.40
2018-06-24T18:43:20.678Z,2.73
2018-06-24T18:45:26.561Z,3.20
2018-06-24T18:47:31.496Z,3.07
2018-06-24T18:49:36.499Z,3.60
2018-06-24T18:51:41.822Z,3.50
2018-06-24T18:53:46.761Z,3.70
2018-06-24T18:55:51.831Z,3.10
2018-06-24T18:57:56.865Z,3.77
2018-06-24T19:00:01.815Z,3.23
2018-06-24T19:02:07.027Z,3.10
2018-06-24T19:04:12.018Z,3.30
2018-06-24T19:06:16.965Z,3.27
2018-06-24T19:08:21.982Z,3.03
2018-06-24T19:10:27.553Z,2.97
2018-06-24T19:12:32.469Z,3.20
2018-06-24T19:14:37.374Z,2.93
2018-06-24T19:16:42.847Z,3.07
2018-06-24T19:18:47.873Z,3.80
2018-06-24T19:20:52.863Z,3.63
2018-06-24T19:22:58.260Z,3.37
2018-06-24T19:25:03.168Z,3.00
2018-06-24T19:27:08.218Z,3.20
2018-06-24T19:29:13.150Z,3.20
2018-06-24T19:31:18.198Z,3.27
2018-06-24T19:33:23.144Z,3.00
2018-06-24T19:35:28.075Z,3.10
2018-06-24T19:37:33.447Z,3.63
2018-06-24T19:39:38.411Z,3.60
2018-06-24T19:41:43.375Z,3.10
2018-06-24T19:43:48.390Z,3.53
2018-06-24T19:45:53.422Z,3.07
2018-06-24T19:47:58.471Z,3.77
2018-06-24T19:50:03.630Z,3.80
2018-06-24T19:52:08.490Z,3.10
2018-06-24T19:54:13.432Z,3.20
2018-06-24T19:56:18.384Z,3.60
2018-06-24T19:58:23.663Z,3.47
2018-06-24T20:00:28.925Z,3.73
2018-06-24T20:02:33.870Z,3.00
2018-06-24T20:04:39.785Z,3.20
2018-06-24T20:06:44.734Z,4.30
2018-06-24T20:08:49.733Z,3.27
2018-06-24T20:10:54.749Z,2.83
2018-06-24T20:13:00.179Z,3.50
2018-06-24T20:15:06.212Z,2.93
2018-06-24T20:17:11.323Z,3.47
2018-06-24T20:19:16.325Z,3.33
2018-06-24T20:21:26.156Z,3.77
2018-06-24T20:23:35.168Z,2.97
2018-06-24T20:25:41.071Z,3.20
2018-06-24T20:27:46.033Z,3.37
2018-06-24T20:29:51.050Z,3.53
2018-06-24T20:31:57.848Z,3.37
2018-06-24T20:34:02.758Z,3.30
2018-06-24T20:36:07.739Z,3.67
2018-06-24T20:38:12.744Z,3.33
2018-06-24T20:40:18.038Z,2.80
2018-06-24T20:42:22.964Z,4.63
2018-06-24T20:44:27.826Z,3.07
2018-06-24T20:46:32.807Z,2.93
2018-06-24T20:48:37.805Z,3.70
2018-06-24T20:50:42.849Z,2.93
2018-06-24T20:52:47.809Z,3.10
2018-06-24T20:54:52.774Z,3.20
2018-06-24T20:56:57.704Z,3.73
2018-06-24T20:59:04.847Z,2.90
2018-06-24T21:01:10.842Z,3.27
2018-06-24T21:03:15.847Z,3.23
2018-06-24T21:05:20.855Z,3.20
2018-06-24T21:07:25.734Z,3.13
2018-06-24T21:09:33.139Z,2.97
2018-06-24T21:11:38.195Z,3.43
2018-06-24T21:13:43.121Z,3.50
2018-06-24T21:15:48.135Z,4.10
2018-06-24T21:17:53.119Z,2.87
2018-06-24T21:20:00.277Z,4.53
2018-06-24T21:22:05.316Z,3.10
2018-06-24T21:24:10.425Z,3.17
2018-06-24T21:26:15.543Z,3.00
2018-06-24T21:28:22.704Z,3.70
2018-06-24T21:30:27.996Z,2.80
2018-06-24T21:32:32.963Z,4.20
2018-06-24T21:34:38.012Z,3.57
2018-06-24T21:36:42.990Z,3.50
2018-06-24T21:38:47.983Z,3.43
2018-06-24T21:40:53.119Z,3.57
2018-06-24T21:42:58.215Z,3.40
2018-06-24T21:45:03.299Z,4.03
2018-06-24T21:47:08.319Z,4.03
2018-06-24T21:49:13.380Z,3.70
2018-06-24T21:51:19.186Z,4.17
2018-06-24T21:53:24.147Z,4.37
2018-06-24T21:55:29.078Z,4.07
2018-06-24T21:57:34.088Z,3.40
2018-06-24T21:59:39.137Z,4.17
2018-06-24T22:01:44.155Z,3.73
2018-06-24T22:03:49.136Z,3.60
2018-06-24T22:05:54.066Z,3.97
2018-06-24T22:07:59.075Z,4.57
2018-06-24T22:10:05.042Z,3.50
2018-06-24T22:12:09.973Z,4.20
2018-06-24T22:14:14.969Z,4.20
2018-06-24T22:16:19.942Z,3.20
2018-06-24T22:18:25.040Z,6.00
2018-06-24T22:20:30.009Z,3.27
2018-06-24T22:22:35.013Z,3.33
2018-06-24T22:24:40.052Z,3.70
2018-06-24T22:26:45.347Z,3.40
2018-06-24T22:28:49.826Z,3.77
2018-06-24T22:30:54.706Z,4.80
2018-06-24T22:33:00.078Z,5.10
2018-06-24T22:35:04.999Z,5.80
2018-06-24T22:37:10.119Z,3.80
2018-06-24T22:39:15.192Z,3.87
2018-06-24T22:41:20.291Z,4.20
2018-06-24T22:43:25.668Z,4.93
2018-06-24T22:45:30.933Z,3.17
2018-06-24T22:47:37.514Z,4.10
2018-06-24T22:49:42.598Z,6.40
2018-06-24T22:51:48.216Z,5.63
2018-06-24T22:53:53.641Z,4.67
2018-06-24T22:55:58.958Z,5.50
2018-06-24T22:58:03.990Z,3.83
2018-06-24T23:00:16.562Z,4.70
2018-06-24T23:02:21.264Z,4.53
2018-06-24T23:04:25.993Z,4.20
2018-06-24T23:06:31.064Z,5.57
2018-06-24T23:08:36.012Z,3.77
2018-06-24T23:10:40.982Z,4.27
2018-06-24T23:12:45.915Z,6.40
2018-06-24T23:14:50.871Z,4.87
2018-06-24T23:16:55.986Z,5.33
2018-06-24T23:19:00.945Z,5.23
2018-06-24T23:21:06.153Z,4.10
2018-06-24T23:23:11.063Z,4.83
2018-06-24T23:25:16.068Z,4.47
2018-06-24T23:27:21.362Z,4.93
2018-06-24T23:29:26.279Z,6.53
2018-06-24T23:31:31.219Z,6.20
2018-06-24T23:33:36.198Z,6.60
2018-06-24T23:35:41.284Z,5.00
2018-06-24T23:37:46.763Z,5.87
2018-06-24T23:39:51.746Z,6.23
2018-06-24T23:41:56.879Z,5.00
2018-06-24T23:44:01.841Z,5.77
2018-06-24T23:46:06.883Z,4.23
2018-06-24T23:48:11.883Z,5.00
2018-06-24T23:50:18.756Z,5.57
2018-06-24T23:52:23.856Z,5.43
2018-06-24T23:54:28.929Z,7.47
2018-06-24T23:56:33.963Z,4.67
2018-06-24T23:58:38.490Z,5.87
